createdAt,value
2022-10-17T00:00:11.137Z,100994.25
2022-10-17T00:02:37.949Z,100985.66
2022-10-17T00:05:04.961Z,100996.38
2022-10-17T00:07:31.592Z,100987.59
2022-10-17T00:09:58.127Z,100989.00
2022-10-17T00:12:24.675Z,100991.16
2022-10-17T00:14:51.388Z,100988.63
2022-10-17T00:17:17.931Z,100993.50
2022-10-17T00:19:44.480Z,100988.63
2022-10-17T00:22:11.054Z,100988.06
2022-10-17T00:24:37.597Z,100994.63
2022-10-17T00:27:04.421Z,100991.81
2022-10-17T00:29:30.984Z,100989.75
2022-10-17T00:31:57.572Z,100992.88
2022-10-17T00:34:25.089Z,100990.25
2022-10-17T00:36:52.355Z,100987.53
2022-10-17T00:39:19.086Z,100986.72
2022-10-17T00:41:45.675Z,100994.16
2022-10-17T00:44:30.365Z,100986.38
2022-10-17T00:46:59.211Z,100986.72
2022-10-17T00:49:28.541Z,100981.84
2022-10-17T00:52:00.363Z,100989.38
2022-10-17T00:54:32.421Z,100978.63
2022-10-17T00:56:59.364Z,100979.69
2022-10-17T00:59:26.145Z,100973.53
2022-10-17T01:02:14.557Z,100980.78
2022-10-17T01:04:44.117Z,100984.19
2022-10-17T01:07:11.134Z,100980.69
2022-10-17T01:09:39.518Z,100984.22
2022-10-17T01:12:16.947Z,100970.81
2022-10-17T01:14:55.255Z,100970.72
2022-10-17T01:17:37.033Z,100971.91
2022-10-17T01:20:31.684Z,100961.34
2022-10-17T01:23:16.566Z,100956.16
2022-10-17T01:26:14.044Z,100958.22
2022-10-17T01:28:55.676Z,100956.84
2022-10-17T01:31:25.895Z,100953.72
2022-10-17T01:34:12.397Z,100962.13
2022-10-17T01:36:47.695Z,100963.50
2022-10-17T01:39:17.251Z,100972.69
2022-10-17T01:41:51.647Z,100977.88
2022-10-17T01:44:23.137Z,100978.94
2022-10-17T01:46:51.388Z,100975.44
2022-10-17T01:49:23.934Z,100963.69
2022-10-17T01:51:58.992Z,100958.22
2022-10-17T01:54:37.379Z,100962.72
2022-10-17T01:57:08.734Z,100955.22
2022-10-17T01:59:44.340Z,100965.59
2022-10-17T02:02:14.520Z,100953.56
2022-10-17T02:04:42.574Z,100960.00
2022-10-17T02:07:10.395Z,100962.38
2022-10-17T02:09:37.018Z,100970.59
2022-10-17T02:12:45.537Z,100974.47
2022-10-17T02:15:33.177Z,100975.66
2022-10-17T02:18:15.332Z,100974.28
2022-10-17T02:20:57.129Z,100969.00
2022-10-17T02:23:42.417Z,100971.75
2022-10-17T02:26:44.333Z,100963.72
2022-10-17T02:29:16.665Z,100950.13
2022-10-17T02:31:56.085Z,100951.91
2022-10-17T02:34:31.277Z,100958.25
2022-10-17T02:37:02.146Z,100950.94
2022-10-17T02:39:30.454Z,100950.81
2022-10-17T02:42:00.908Z,100948.50
2022-10-17T02:44:28.737Z,100954.38
2022-10-17T02:47:03.725Z,100951.22
2022-10-17T02:49:37.620Z,100964.91
2022-10-17T02:52:12.902Z,100961.19
2022-10-17T02:54:54.807Z,100973.50
2022-10-17T02:57:41.940Z,100966.84
2022-10-17T03:00:12.805Z,100982.88
2022-10-17T03:02:48.452Z,100972.53
2022-10-17T03:05:20.425Z,100984.66
2022-10-17T03:07:47.268Z,100992.03
2022-10-17T03:10:13.906Z,100991.16
2022-10-17T03:12:40.491Z,100997.94
2022-10-17T03:15:07.497Z,100998.50
2022-10-17T03:17:35.093Z,101004.19
2022-10-17T03:20:01.755Z,101013.19
2022-10-17T03:22:28.590Z,101002.44
2022-10-17T03:24:55.406Z,101004.97
2022-10-17T03:27:21.960Z,101003.41
2022-10-17T03:29:48.527Z,101015.44
2022-10-17T03:32:15.207Z,101015.81
2022-10-17T03:34:41.819Z,101021.47
2022-10-17T03:37:08.377Z,101029.00
2022-10-17T03:39:34.946Z,101031.94
2022-10-17T03:42:01.583Z,101023.94
2022-10-17T03:44:28.174Z,101043.69
2022-10-17T03:46:54.740Z,101050.50
2022-10-17T03:49:21.273Z,101043.06
2022-10-17T03:51:47.793Z,101039.16
2022-10-17T03:54:14.363Z,101035.25
2022-10-17T03:56:40.946Z,101040.69
2022-10-17T03:59:07.512Z,101046.16
2022-10-17T04:01:34.170Z,101042.66
2022-10-17T04:04:00.758Z,101032.94
2022-10-17T04:06:27.305Z,101034.22
2022-10-17T04:08:53.867Z,101028.56
2022-10-17T04:11:21.284Z,101025.81
2022-10-17T04:13:48.476Z,101024.06
2022-10-17T04:16:17.465Z,101020.94
2022-10-17T04:18:44.681Z,101022.03
2022-10-17T04:21:12.379Z,101022.13
2022-10-17T04:23:39.722Z,101014.22
2022-10-17T04:26:06.837Z,101011.56
2022-10-17T04:28:35.822Z,100999.66
2022-10-17T04:31:07.898Z,101009.59
2022-10-17T04:33:35.705Z,101006.97
2022-10-17T04:36:06.409Z,101007.63
2022-10-17T04:38:33.937Z,100997.03
2022-10-17T04:41:03.197Z,101004.13
2022-10-17T04:43:34.437Z,101000.25
2022-10-17T04:46:02.672Z,101011.88
2022-10-17T04:48:30.391Z,101019.00
2022-10-17T04:50:59.101Z,101019.59
2022-10-17T04:53:27.005Z,101014.44
2022-10-17T04:55:53.823Z,101017.28
2022-10-17T04:58:20.541Z,101022.53
2022-10-17T05:00:47.230Z,101028.03
2022-10-17T05:03:14.551Z,101028.91
2022-10-17T05:05:42.470Z,101031.56
2022-10-17T05:08:11.046Z,101040.16
2022-10-17T05:10:42.675Z,101042.31
2022-10-17T05:13:10.199Z,101046.03
2022-10-17T05:15:37.440Z,101042.53
2022-10-17T05:18:05.510Z,101044.84
2022-10-17T05:20:32.815Z,101041.91
2022-10-17T05:23:00.245Z,101035.34
2022-10-17T05:25:26.830Z,101036.50
2022-10-17T05:27:53.802Z,101032.31
2022-10-17T05:30:20.366Z,101029.00
2022-10-17T05:32:47.012Z,101034.28
2022-10-17T05:35:13.541Z,101031.44
2022-10-17T05:37:40.199Z,101034.66
2022-10-17T05:40:07.383Z,101044.50
2022-10-17T05:42:34.174Z,101041.69
2022-10-17T05:45:00.783Z,101048.31
2022-10-17T05:47:27.743Z,101053.09
2022-10-17T05:49:54.715Z,101058.84
2022-10-17T05:52:21.260Z,101056.78
2022-10-17T05:54:47.833Z,101061.00
2022-10-17T05:57:14.451Z,101055.03
2022-10-17T05:59:40.985Z,101065.53
2022-10-17T06:02:07.627Z,101061.97
2022-10-17T06:04:34.239Z,101069.09
2022-10-17T06:07:00.767Z,101075.50
2022-10-17T06:09:28.334Z,101072.97
2022-10-17T06:11:54.866Z,101070.94
2022-10-17T06:14:21.744Z,101066.91
2022-10-17T06:16:48.359Z,101068.16
2022-10-17T06:19:14.890Z,101079.22
2022-10-17T06:21:41.458Z,101076.94
2022-10-17T06:24:08.032Z,101084.03
2022-10-17T06:26:34.655Z,101092.31
2022-10-17T06:29:01.254Z,101091.06
2022-10-17T06:31:27.916Z,101093.38
2022-10-17T06:33:54.526Z,101094.56
2022-10-17T06:36:21.240Z,101099.16
2022-10-17T06:38:47.956Z,101103.19
2022-10-17T06:41:16.275Z,101097.81
2022-10-17T06:43:46.382Z,101094.97
2022-10-17T06:46:15.119Z,101095.31
2022-10-17T06:48:41.717Z,101100.13
2022-10-17T06:51:12.069Z,101093.22
2022-10-17T06:53:40.423Z,101089.47
2022-10-17T06:56:09.392Z,101087.69
2022-10-17T06:58:40.702Z,101092.38
2022-10-17T07:01:10.733Z,101085.78
2022-10-17T07:03:37.405Z,101086.16
2022-10-17T07:06:04.484Z,101088.38
2022-10-17T07:08:31.058Z,101090.47
2022-10-17T07:10:57.759Z,101101.47
2022-10-17T07:13:25.445Z,101107.44
2022-10-17T07:15:52.450Z,101115.19
2022-10-17T07:18:19.035Z,101119.72
2022-10-17T07:20:53.865Z,101123.81
2022-10-17T07:23:20.953Z,101121.66
2022-10-17T07:25:47.578Z,101115.25
2022-10-17T07:28:15.464Z,101109.75
2022-10-17T07:30:42.698Z,101116.44
2022-10-17T07:33:09.239Z,101113.47
2022-10-17T07:35:38.460Z,101097.88
2022-10-17T07:38:05.017Z,101092.44
2022-10-17T07:40:31.639Z,101083.34
2022-10-17T07:42:58.316Z,101076.28
2022-10-17T07:45:27.631Z,101077.44
2022-10-17T07:47:57.964Z,101078.00
2022-10-17T07:50:24.860Z,101080.00
2022-10-17T07:52:51.471Z,101080.44
2022-10-17T07:55:18.038Z,101069.75
2022-10-17T07:57:44.613Z,101089.19
2022-10-17T08:00:11.501Z,101081.81
2022-10-17T08:02:38.033Z,101080.47
2022-10-17T08:05:04.912Z,101064.25
2022-10-17T08:07:31.840Z,101082.06
2022-10-17T08:09:58.465Z,101086.78
2022-10-17T08:12:26.048Z,101092.22
2022-10-17T08:14:52.633Z,101090.97
2022-10-17T08:17:19.161Z,101088.69
2022-10-17T08:19:45.744Z,101087.47
2022-10-17T08:22:12.283Z,101078.25
2022-10-17T08:24:38.822Z,101073.19
2022-10-17T08:27:11.471Z,101080.44
2022-10-17T08:29:39.166Z,101081.03
2022-10-17T08:32:09.576Z,101067.84
2022-10-17T08:34:36.548Z,101073.09
2022-10-17T08:37:03.216Z,101063.97
2022-10-17T08:39:29.777Z,101057.41
2022-10-17T08:42:11.710Z,101053.66
2022-10-17T08:44:41.049Z,101066.16
2022-10-17T08:47:13.689Z,101062.97
2022-10-17T08:49:54.062Z,101049.63
2022-10-17T08:52:40.107Z,101048.44
2022-10-17T08:55:38.824Z,101050.59
2022-10-17T08:58:18.926Z,101034.59
2022-10-17T09:01:13.600Z,101040.06
2022-10-17T09:04:04.873Z,101048.41
2022-10-17T09:06:41.020Z,101050.25
2022-10-17T09:09:25.332Z,101058.47
2022-10-17T09:11:51.807Z,101054.78
2022-10-17T09:14:30.604Z,101058.38
2022-10-17T09:16:57.060Z,101053.34
2022-10-17T09:19:29.242Z,101052.72
2022-10-17T09:22:03.161Z,101060.34
2022-10-17T09:24:35.688Z,101067.47
2022-10-17T09:27:03.324Z,101054.00
2022-10-17T09:29:36.094Z,101054.28
2022-10-17T09:32:15.014Z,101049.41
2022-10-17T09:34:41.755Z,101054.56
2022-10-17T09:37:15.137Z,101054.25
2022-10-17T09:39:43.070Z,101050.22
2022-10-17T09:42:18.738Z,101058.66
2022-10-17T09:45:18.534Z,101063.56
2022-10-17T09:48:02.151Z,101064.66
2022-10-17T09:50:33.939Z,101060.00
2022-10-17T09:53:14.842Z,101047.19
2022-10-17T09:55:50.520Z,101032.06
2022-10-17T09:58:17.074Z,101030.84
2022-10-17T10:00:46.037Z,101035.25
2022-10-17T10:03:18.722Z,101037.19
2022-10-17T10:06:18.764Z,101033.91
2022-10-17T10:08:52.059Z,101025.69
2022-10-17T10:11:22.880Z,101020.66
2022-10-17T10:13:50.410Z,101024.56
2022-10-17T10:16:24.363Z,101023.13
2022-10-17T10:18:51.689Z,101042.34
2022-10-17T10:21:26.846Z,101041.84
2022-10-17T10:24:04.271Z,101056.41
2022-10-17T10:26:53.515Z,101048.97
2022-10-17T10:29:42.713Z,101041.41
2022-10-17T10:32:28.397Z,101039.88
2022-10-17T10:35:07.817Z,101048.88
2022-10-17T10:37:37.206Z,101046.25
2022-10-17T10:40:07.496Z,101035.22
2022-10-17T10:42:37.819Z,101037.41
2022-10-17T10:45:11.963Z,101030.13
2022-10-17T10:47:51.593Z,101032.56
2022-10-17T10:50:30.038Z,101040.63
2022-10-17T10:53:15.118Z,101035.03
2022-10-17T10:55:44.680Z,101033.00
2022-10-17T10:58:20.621Z,101024.00
2022-10-17T11:00:48.358Z,101021.25
2022-10-17T11:03:33.644Z,101018.91
2022-10-17T11:06:12.410Z,101022.91
2022-10-17T11:08:49.108Z,101026.44
2022-10-17T11:11:39.094Z,101011.72
2022-10-17T11:14:17.831Z,101014.63
2022-10-17T11:17:06.049Z,101006.88
2022-10-17T11:19:44.690Z,101004.34
2022-10-17T11:22:29.254Z,101013.09
2022-10-17T11:25:26.844Z,101019.69
2022-10-17T11:27:53.396Z,101013.47
2022-10-17T11:30:21.761Z,101009.22
2022-10-17T11:32:56.934Z,101020.59
2022-10-17T11:35:28.151Z,101004.44
2022-10-17T11:38:26.067Z,100999.72
2022-10-17T11:40:58.576Z,100988.66
2022-10-17T11:43:36.924Z,100972.44
2022-10-17T11:46:12.921Z,100980.22
2022-10-17T11:49:05.444Z,100971.25
2022-10-17T11:54:31.554Z,100976.78
2022-10-17T11:57:14.810Z,100977.81
2022-10-17T11:59:59.366Z,100976.16
2022-10-17T12:03:07.229Z,100979.34
2022-10-17T12:05:49.079Z,100974.75
2022-10-17T12:08:50.845Z,100970.38
2022-10-17T12:11:40.366Z,100969.56
2022-10-17T12:14:34.647Z,100958.84
2022-10-17T12:17:02.519Z,100960.69
2022-10-17T12:19:32.818Z,100954.72
2022-10-17T12:22:06.852Z,100955.81
2022-10-17T12:24:44.639Z,100952.06
2022-10-17T12:27:36.044Z,100948.72
2022-10-17T12:30:11.660Z,100964.91
2022-10-17T12:33:04.149Z,100955.41
2022-10-17T12:35:34.747Z,100956.19
2022-10-17T12:38:04.223Z,100955.00
2022-10-17T12:40:36.442Z,100954.28
2022-10-17T12:43:15.352Z,100941.75
2022-10-17T12:45:45.020Z,100947.59
2022-10-17T12:48:11.685Z,100953.38
2022-10-17T12:51:17.681Z,100954.72
2022-10-17T12:53:46.806Z,100953.06
2022-10-17T12:56:15.850Z,100939.03
2022-10-17T12:58:48.014Z,100935.88
2022-10-17T13:01:25.827Z,100934.75
2022-10-17T13:03:53.682Z,100935.22
2022-10-17T13:06:23.728Z,100938.41
2022-10-17T13:09:02.452Z,100948.66
2022-10-17T13:11:32.956Z,100940.44
2022-10-17T13:14:03.345Z,100938.81
2022-10-17T13:16:39.778Z,100940.31
2022-10-17T13:19:15.553Z,100946.31
2022-10-17T13:22:05.312Z,100944.41
2022-10-17T13:24:35.443Z,100947.94
2022-10-17T13:27:03.824Z,100925.81
2022-10-17T13:29:32.160Z,100932.94
2022-10-17T13:32:06.797Z,100938.16
2022-10-17T13:34:34.064Z,100932.41
2022-10-17T13:37:10.305Z,100938.75
2022-10-17T13:40:00.302Z,100944.72
2022-10-17T13:42:31.066Z,100937.50
2022-10-17T13:44:59.493Z,100937.50
2022-10-17T13:47:29.141Z,100940.22
2022-10-17T13:49:57.874Z,100936.84
2022-10-17T13:52:29.970Z,100928.09
2022-10-17T13:55:08.302Z,100936.88
2022-10-17T13:57:34.973Z,100930.13
2022-10-17T14:00:17.698Z,100932.31
2022-10-17T14:02:44.302Z,100928.84
2022-10-17T14:05:18.973Z,100927.72
2022-10-17T14:08:12.820Z,100933.47
2022-10-17T14:10:43.007Z,100924.66
2022-10-17T14:13:22.912Z,100920.63
2022-10-17T14:15:50.306Z,100920.53
2022-10-17T14:18:24.103Z,100920.06
2022-10-17T14:23:43.964Z,100924.63
2022-10-17T14:26:22.725Z,100925.03
2022-10-17T14:29:05.525Z,100920.22
2022-10-17T14:31:38.307Z,100920.44
2022-10-17T14:34:04.990Z,100915.38
2022-10-17T14:36:35.065Z,100915.53
2022-10-17T14:39:03.444Z,100911.19
2022-10-17T14:41:42.969Z,100914.66
2022-10-17T14:44:19.071Z,100908.53
2022-10-17T14:46:50.805Z,100920.59
2022-10-17T14:49:33.643Z,100922.28
2022-10-17T14:52:25.352Z,100924.78
2022-10-17T14:54:52.363Z,100930.03
2022-10-17T14:57:49.647Z,100923.78
2022-10-17T15:00:17.847Z,100925.34
2022-10-17T15:02:45.734Z,100935.56
2022-10-17T15:05:13.758Z,100936.38
2022-10-17T15:07:41.622Z,100936.13
2022-10-17T15:10:37.143Z,100930.03
2022-10-17T15:13:26.753Z,100936.03
2022-10-17T15:15:52.122Z,100935.81
2022-10-17T15:18:19.361Z,100935.53
2022-10-17T15:20:45.951Z,100937.31
2022-10-17T15:23:12.536Z,100947.44
2022-10-17T15:25:39.375Z,100941.97
2022-10-17T15:28:05.957Z,100949.56
2022-10-17T15:30:36.497Z,100958.06
2022-10-17T15:33:03.781Z,100958.00
2022-10-17T15:35:30.992Z,100956.03
2022-10-17T15:37:57.556Z,100958.44
2022-10-17T15:40:30.641Z,100955.59
2022-10-17T15:42:58.038Z,100963.06
2022-10-17T15:45:25.197Z,100964.66
2022-10-17T15:47:57.618Z,100972.09
2022-10-17T15:50:24.240Z,100972.00
2022-10-17T15:52:51.042Z,100968.28
2022-10-17T15:55:18.382Z,100967.34
2022-10-17T15:57:47.296Z,100971.66
2022-10-17T16:00:22.190Z,100966.25
2022-10-17T16:02:49.519Z,100966.97
2022-10-17T16:05:16.239Z,100965.31
2022-10-17T16:07:46.788Z,100965.94
2022-10-17T16:10:14.763Z,100967.75
2022-10-17T16:12:41.934Z,100969.00
2022-10-17T16:15:17.524Z,100971.66
2022-10-17T16:17:44.643Z,100970.69
2022-10-17T16:20:12.682Z,100965.13
2022-10-17T16:22:42.003Z,100958.59
2022-10-17T16:25:19.466Z,100958.53
2022-10-17T16:27:48.470Z,100963.44
2022-10-17T16:30:15.807Z,100965.91
2022-10-17T16:32:42.681Z,100964.81
2022-10-17T16:35:11.344Z,100961.38
2022-10-17T16:37:37.904Z,100958.56
2022-10-17T16:40:05.085Z,100955.72
2022-10-17T16:42:31.876Z,100955.50
2022-10-17T16:44:58.824Z,100956.38
2022-10-17T16:47:25.379Z,100956.84
2022-10-17T16:49:51.919Z,100965.13
2022-10-17T16:52:18.459Z,100965.00
2022-10-17T16:54:45.025Z,100958.91
2022-10-17T16:57:11.686Z,100962.47
2022-10-17T16:59:38.387Z,100961.41
2022-10-17T17:02:05.224Z,100963.88
2022-10-17T17:04:31.981Z,100962.06
2022-10-17T17:06:58.774Z,100962.03
2022-10-17T17:09:25.331Z,100956.66
2022-10-17T17:11:51.936Z,100956.31
2022-10-17T17:14:18.515Z,100947.59
2022-10-17T17:16:45.099Z,100958.72
2022-10-17T17:19:13.779Z,100949.09
2022-10-17T17:21:40.433Z,100949.00
2022-10-17T17:24:06.986Z,100948.91
2022-10-17T17:26:38.940Z,100949.88
2022-10-17T17:29:05.715Z,100950.63
2022-10-17T17:31:33.993Z,100944.50
2022-10-17T17:34:01.021Z,100940.53
2022-10-17T17:36:31.259Z,100948.22
2022-10-17T17:39:01.486Z,100944.78
2022-10-17T17:41:28.589Z,100950.09
2022-10-17T17:43:55.908Z,100948.22
2022-10-17T17:46:23.926Z,100953.16
2022-10-17T17:48:51.749Z,100949.69
2022-10-17T17:51:26.906Z,100947.84
2022-10-17T17:53:56.818Z,100951.34
2022-10-17T17:56:28.393Z,100950.56
2022-10-17T17:58:57.343Z,100945.91
2022-10-17T18:01:27.610Z,100950.03
2022-10-17T18:03:55.923Z,100948.19
2022-10-17T18:06:23.447Z,100949.22
2022-10-17T18:08:56.242Z,100944.84
2022-10-17T18:11:22.915Z,100947.19
2022-10-17T18:13:58.211Z,100941.56
2022-10-17T18:16:26.383Z,100947.91
2022-10-17T18:18:53.085Z,100942.03
2022-10-17T18:21:19.993Z,100955.16
2022-10-17T18:23:48.007Z,100943.78
2022-10-17T18:26:15.265Z,100937.56
2022-10-17T18:28:43.175Z,100941.50
2022-10-17T18:31:24.054Z,100939.16
2022-10-17T18:33:55.148Z,100949.19
2022-10-17T18:36:22.729Z,100940.94
2022-10-17T18:38:49.732Z,100943.28
2022-10-17T18:41:18.795Z,100948.28
2022-10-17T18:43:46.702Z,100947.38
2022-10-17T18:46:41.034Z,100946.72
2022-10-17T18:49:10.037Z,100957.53
2022-10-17T18:51:37.229Z,100964.38
2022-10-17T18:54:04.093Z,100956.75
2022-10-17T18:56:31.699Z,100963.44
2022-10-17T18:58:58.317Z,100971.81
2022-10-17T19:01:27.303Z,100971.56
2022-10-17T19:03:57.122Z,100965.56
2022-10-17T19:06:27.570Z,100968.44
2022-10-17T19:08:54.219Z,100965.59
2022-10-17T19:11:23.937Z,100970.00
2022-10-17T19:13:51.661Z,100973.38
2022-10-17T19:16:21.670Z,100958.22
2022-10-17T19:19:21.823Z,100955.72
2022-10-17T19:21:49.360Z,100965.59
2022-10-17T19:24:20.073Z,100962.97
2022-10-17T19:26:50.218Z,100960.16
2022-10-17T19:29:18.163Z,100960.00
2022-10-17T19:31:45.650Z,100962.69
2022-10-17T19:34:13.698Z,100960.88
2022-10-17T19:36:40.919Z,100961.44
2022-10-17T19:39:11.959Z,100964.09
2022-10-17T19:41:41.367Z,100959.88
2022-10-17T19:44:08.014Z,100955.69
2022-10-17T19:46:34.984Z,100956.69
2022-10-17T19:49:02.331Z,100954.19
2022-10-17T19:51:29.274Z,100956.25
2022-10-17T19:54:00.136Z,100959.16
2022-10-17T19:56:28.302Z,100952.69
2022-10-17T19:58:55.654Z,100956.44
2022-10-17T20:01:28.020Z,100955.56
2022-10-17T20:03:55.325Z,100947.72
2022-10-17T20:06:22.704Z,100954.78
2022-10-17T20:08:50.139Z,100945.28
2022-10-17T20:11:20.143Z,100951.72
2022-10-17T20:13:46.714Z,100950.19
2022-10-17T20:16:16.956Z,100955.91
2022-10-17T20:18:44.084Z,100952.88
2022-10-17T20:21:13.158Z,100958.00
2022-10-17T20:23:40.311Z,100953.03
2022-10-17T20:26:25.453Z,100943.44
2022-10-17T20:28:57.674Z,100950.59
2022-10-17T20:31:24.600Z,100941.19
2022-10-17T20:33:56.156Z,100949.72
2022-10-17T20:36:23.491Z,100942.38
2022-10-17T20:38:57.431Z,100951.50
2022-10-17T20:41:25.352Z,100956.63
2022-10-17T20:43:53.227Z,100948.31
2022-10-17T20:46:36.422Z,100943.19
2022-10-17T20:49:06.911Z,100950.00
2022-10-17T20:51:34.694Z,100958.13
2022-10-17T20:54:02.481Z,100954.69
2022-10-17T20:56:30.250Z,100958.31
2022-10-17T20:59:04.342Z,100960.69
2022-10-17T21:01:32.586Z,100965.31
2022-10-17T21:04:10.573Z,100965.22
2022-10-17T21:06:42.795Z,100963.75
2022-10-17T21:09:09.689Z,100968.41
2022-10-17T21:11:36.355Z,100974.53
2022-10-17T21:14:06.197Z,100966.72
2022-10-17T21:16:36.047Z,100958.16
2022-10-17T21:19:03.765Z,100953.91
2022-10-17T21:21:35.906Z,100959.22
2022-10-17T21:24:05.458Z,100951.94
2022-10-17T21:26:34.440Z,100946.03
2022-10-17T21:29:05.497Z,100943.94
2022-10-17T21:31:33.959Z,100938.66
2022-10-17T21:34:06.797Z,100943.06
2022-10-17T21:36:33.354Z,100944.94
2022-10-17T21:39:00.172Z,100945.38
2022-10-17T21:41:29.314Z,100953.19
2022-10-17T21:43:58.386Z,100950.41
2022-10-17T21:46:25.372Z,100940.16
2022-10-17T21:48:52.398Z,100950.06
2022-10-17T21:51:22.501Z,100943.69
2022-10-17T21:53:50.198Z,100940.94
2022-10-17T21:56:22.172Z,100943.69
2022-10-17T21:58:50.021Z,100938.41
2022-10-17T22:01:22.760Z,100932.66
2022-10-17T22:03:53.053Z,100937.28
2022-10-17T22:09:22.052Z,100930.41
2022-10-17T22:11:51.610Z,100928.81
2022-10-17T22:14:20.458Z,100931.97
2022-10-17T22:16:48.553Z,100932.16
2022-10-17T22:19:18.957Z,100934.81
2022-10-17T22:21:45.791Z,100931.88
2022-10-17T22:24:14.337Z,100926.44
2022-10-17T22:26:41.500Z,100925.66
2022-10-17T22:29:08.956Z,100924.47
2022-10-17T22:31:36.824Z,100926.91
2022-10-17T22:34:05.342Z,100924.47
2022-10-17T22:36:32.631Z,100924.94
2022-10-17T22:38:59.207Z,100910.22
2022-10-17T22:41:25.826Z,100926.53
2022-10-17T22:43:52.388Z,100917.34
2022-10-17T22:46:18.934Z,100914.69
2022-10-17T22:48:45.777Z,100910.09
2022-10-17T22:51:12.848Z,100909.69
2022-10-17T22:53:39.735Z,100904.34
2022-10-17T22:56:15.499Z,100901.38
2022-10-17T22:58:42.077Z,100899.28
2022-10-17T23:01:13.116Z,100899.09
2022-10-17T23:03:39.930Z,100909.63
2022-10-17T23:06:06.515Z,100919.59
2022-10-17T23:08:33.161Z,100911.75
2022-10-17T23:10:59.766Z,100911.69
2022-10-17T23:13:26.294Z,100910.81
2022-10-17T23:15:54.577Z,100913.25
2022-10-17T23:18:22.573Z,100909.00
2022-10-17T23:20:49.353Z,100918.78
2022-10-17T23:23:16.561Z,100924.09
2022-10-17T23:25:43.560Z,100925.00
2022-10-17T23:28:10.623Z,100926.88
2022-10-17T23:30:38.196Z,100923.34
2022-10-17T23:33:05.437Z,100927.75
2022-10-17T23:35:32.801Z,100926.19
2022-10-17T23:37:59.645Z,100925.25
2022-10-17T23:40:26.283Z,100922.44
2022-10-17T23:42:52.825Z,100925.88
2022-10-17T23:45:19.669Z,100919.78
2022-10-17T23:47:46.327Z,100916.22
2022-10-17T23:50:12.885Z,100910.03
2022-10-17T23:52:39.642Z,100904.84
2022-10-17T23:55:07.081Z,100904.38
2022-10-17T23:57:34.028Z,100910.50
